createdAt,value
2023-03-12T00:01:21.661Z,18.30
2023-03-12T00:06:22.020Z,18.30
2023-03-12T00:13:54.599Z,18.30
2023-03-12T00:16:22.257Z,18.20
2023-03-12T00:21:23.633Z,18.20
2023-03-12T00:23:52.227Z,18.20
2023-03-12T00:28:52.647Z,18.20
2023-03-12T00:34:01.901Z,18.20
2023-03-12T00:36:31.714Z,18.20
2023-03-12T00:44:02.865Z,18.20
2023-03-12T00:51:32.556Z,18.20
2023-03-12T00:59:02.342Z,18.20
2023-03-12T01:06:31.904Z,18.20
2023-03-12T01:14:05.083Z,18.20
2023-03-12T01:16:31.967Z,18.20
2023-03-12T01:21:32.103Z,18.10
2023-03-12T01:29:02.138Z,18.20
2023-03-12T01:36:32.158Z,18.20
2023-03-12T01:41:35.186Z,18.20
2023-03-12T01:44:03.701Z,18.10
2023-03-12T01:46:43.106Z,18.10
2023-03-12T01:49:14.206Z,18.10
2023-03-12T01:52:04.420Z,18.10
2023-03-12T01:54:44.890Z,18.10
2023-03-12T01:57:15.573Z,18.10
2023-03-12T01:59:46.113Z,18.10
2023-03-12T02:02:15.297Z,18.10
2023-03-12T02:04:44.516Z,18.10
2023-03-12T02:07:13.712Z,18.10
2023-03-12T02:09:43.576Z,18.10
2023-03-12T02:12:11.972Z,18.10
2023-03-12T02:22:41.985Z,18.10
2023-03-12T02:28:23.512Z,18.10
2023-03-12T02:30:53.152Z,18.10
2023-03-12T02:35:52.587Z,18.10
2023-03-12T02:38:34.115Z,18.00
2023-03-12T02:41:05.421Z,18.10
2023-03-12T02:43:32.332Z,18.10
2023-03-12T02:51:03.244Z,18.00
2023-03-12T02:56:01.662Z,18.10
2023-03-12T03:03:31.400Z,18.10
2023-03-12T03:11:02.916Z,18.10
2023-03-12T03:16:02.047Z,18.10
2023-03-12T03:21:05.079Z,18.10
2023-03-12T03:23:32.567Z,18.00
2023-03-12T03:31:02.906Z,18.00
2023-03-12T03:33:32.468Z,18.00
2023-03-12T03:36:00.185Z,18.00
2023-03-12T03:38:28.832Z,18.00
2023-03-12T03:40:56.283Z,18.00
2023-03-12T03:43:23.180Z,18.00
2023-03-12T03:45:57.681Z,18.00
2023-03-12T03:48:24.386Z,18.00
2023-03-12T03:50:51.007Z,18.00
2023-03-12T03:53:19.668Z,18.00
2023-03-12T03:55:46.384Z,18.00
2023-03-12T03:58:13.655Z,18.00
2023-03-12T04:00:40.204Z,18.00
2023-03-12T04:03:06.771Z,18.00
2023-03-12T04:05:33.368Z,18.00
2023-03-12T04:08:03.056Z,18.00
2023-03-12T04:10:30.379Z,18.00
2023-03-12T04:12:57.270Z,18.00
2023-03-12T04:15:23.898Z,18.00
2023-03-12T04:17:50.576Z,18.00
2023-03-12T04:20:17.580Z,18.00
2023-03-12T04:22:44.120Z,18.00
2023-03-12T04:25:11.319Z,18.00
2023-03-12T04:27:37.915Z,18.00
2023-03-12T04:30:05.452Z,18.00
2023-03-12T04:32:32.022Z,18.00
2023-03-12T04:34:58.590Z,18.00
2023-03-12T04:37:25.282Z,18.00
2023-03-12T04:39:51.874Z,17.90
2023-03-12T04:42:18.423Z,17.90
2023-03-12T04:47:16.546Z,17.90
2023-03-12T04:49:43.104Z,18.00
2023-03-12T04:52:09.658Z,18.00
2023-03-12T04:54:37.305Z,18.00
2023-03-12T04:57:03.912Z,17.90
2023-03-12T04:59:30.673Z,18.00
2023-03-12T05:01:57.271Z,18.00
2023-03-12T05:04:23.803Z,18.00
2023-03-12T05:06:50.351Z,18.00
2023-03-12T05:09:16.940Z,17.90
2023-03-12T05:11:43.595Z,17.90
2023-03-12T05:14:12.149Z,17.90
2023-03-12T05:16:38.842Z,18.00
2023-03-12T05:19:05.540Z,18.00
2023-03-12T05:21:32.152Z,17.90
2023-03-12T05:23:59.297Z,17.90
2023-03-12T05:26:31.616Z,17.90
2023-03-12T05:28:59.545Z,17.90
2023-03-12T05:31:26.993Z,17.90
2023-03-12T05:33:54.073Z,17.90
2023-03-12T05:36:21.378Z,17.90
2023-03-12T05:38:47.995Z,17.90
2023-03-12T05:41:23.862Z,17.90
2023-03-12T05:43:51.787Z,17.90
2023-03-12T05:46:19.086Z,17.90
2023-03-12T05:48:45.727Z,17.90
2023-03-12T05:51:12.321Z,17.90
2023-03-12T05:53:39.023Z,17.90
2023-03-12T05:56:08.032Z,17.90
2023-03-12T05:58:36.029Z,17.90
2023-03-12T06:01:02.619Z,17.90
2023-03-12T06:03:29.306Z,17.90
2023-03-12T06:05:56.940Z,17.90
2023-03-12T06:10:55.950Z,17.90
2023-03-12T06:13:23.105Z,17.90
2023-03-12T06:15:50.100Z,17.90
2023-03-12T06:18:16.762Z,17.90
2023-03-12T06:20:43.361Z,17.90
2023-03-12T06:23:10.059Z,17.90
2023-03-12T06:25:36.655Z,17.90
2023-03-12T06:28:03.301Z,17.90
2023-03-12T06:30:29.878Z,17.90
2023-03-12T06:32:56.471Z,17.90
2023-03-12T06:35:23.021Z,17.90
2023-03-12T06:37:49.622Z,17.90
2023-03-12T06:40:16.297Z,17.90
2023-03-12T06:42:43.102Z,17.80
2023-03-12T06:45:10.072Z,17.90
2023-03-12T06:47:36.639Z,17.90
2023-03-12T06:50:03.455Z,17.90
2023-03-12T06:52:29.977Z,17.90
2023-03-12T06:54:56.532Z,17.90
2023-03-12T06:57:23.063Z,17.90
2023-03-12T06:59:50.713Z,17.90
2023-03-12T07:02:17.789Z,17.90
2023-03-12T07:07:16.929Z,17.90
2023-03-12T07:09:43.544Z,17.90
2023-03-12T07:12:10.177Z,17.80
2023-03-12T07:14:36.755Z,17.80
2023-03-12T07:19:35.637Z,17.90
2023-03-12T07:22:02.225Z,17.90
2023-03-12T07:24:28.866Z,17.90
2023-03-12T07:26:55.486Z,17.90
2023-03-12T07:29:22.030Z,17.80
2023-03-12T07:31:48.616Z,17.90
2023-03-12T07:34:15.396Z,17.90
2023-03-12T07:36:42.283Z,17.90
2023-03-12T07:39:08.977Z,17.90
2023-03-12T07:41:37.266Z,17.80
2023-03-12T07:46:35.537Z,17.90
2023-03-12T07:49:02.128Z,17.90
2023-03-12T07:51:28.727Z,17.90
2023-03-12T07:53:55.292Z,17.80
2023-03-12T07:56:22.036Z,17.80
2023-03-12T07:58:48.774Z,17.80
2023-03-12T08:01:15.601Z,17.90
2023-03-12T08:08:42.391Z,17.90
2023-03-12T08:11:09.782Z,17.90
2023-03-12T08:13:36.377Z,18.00
2023-03-12T08:21:06.582Z,18.00
2023-03-12T08:28:36.520Z,18.10
2023-03-12T08:33:35.412Z,18.00
2023-03-12T08:43:36.602Z,18.10
2023-03-12T08:53:37.149Z,18.20
2023-03-12T08:58:35.768Z,18.20
2023-03-12T09:08:45.306Z,18.10
2023-03-12T09:14:08.242Z,18.10
2023-03-12T09:16:28.465Z,18.20
2023-03-12T09:18:55.237Z,18.20
2023-03-12T09:21:22.084Z,18.20
2023-03-12T09:23:49.225Z,18.20
2023-03-12T09:28:47.629Z,18.10
2023-03-12T09:31:14.951Z,18.10
2023-03-12T09:43:57.524Z,18.10
2023-03-12T09:49:07.029Z,18.10
2023-03-12T10:02:47.083Z,18.20
2023-03-12T10:05:44.707Z,18.20
2023-03-12T10:10:54.999Z,18.20
2023-03-12T10:13:39.416Z,18.20
2023-03-12T10:16:17.221Z,18.20
2023-03-12T10:18:58.985Z,18.20
2023-03-12T10:21:35.263Z,18.20
2023-03-12T10:24:31.523Z,18.30
2023-03-12T10:26:58.936Z,18.30
2023-03-12T10:29:32.624Z,18.30
2023-03-12T10:32:02.071Z,18.30
2023-03-12T10:37:22.902Z,18.30
2023-03-12T10:39:51.097Z,18.30
2023-03-12T10:42:20.945Z,18.30
2023-03-12T10:44:54.114Z,18.40
2023-03-12T10:47:28.482Z,18.40
2023-03-12T10:49:55.272Z,18.40
2023-03-12T10:52:23.213Z,18.40
2023-03-12T10:54:52.183Z,18.40
2023-03-12T10:57:20.793Z,18.40
2023-03-12T10:59:49.753Z,18.40
2023-03-12T11:02:30.398Z,18.20
2023-03-12T11:04:58.372Z,17.40
2023-03-12T11:07:33.649Z,16.90
2023-03-12T11:10:06.181Z,16.80
2023-03-12T11:18:21.589Z,16.40
2023-03-12T11:23:30.120Z,16.30
2023-03-12T11:26:00.608Z,16.20
2023-03-12T11:28:38.068Z,16.20
2023-03-12T11:31:09.772Z,16.60
2023-03-12T11:36:30.220Z,17.10
2023-03-12T11:39:29.031Z,17.30
2023-03-12T11:42:01.477Z,17.50
2023-03-12T11:45:03.816Z,17.60
2023-03-12T11:48:08.511Z,17.60
2023-03-12T11:56:19.534Z,17.80
2023-03-12T11:59:11.090Z,17.90
2023-03-12T12:01:39.270Z,17.90
2023-03-12T12:04:27.135Z,18.00
2023-03-12T12:07:19.902Z,18.10
2023-03-12T12:09:59.816Z,18.10
2023-03-12T12:15:37.462Z,18.20
2023-03-12T12:18:38.836Z,18.20
2023-03-12T12:27:18.621Z,18.30
2023-03-12T12:43:50.112Z,18.30
2023-03-12T12:46:28.048Z,18.40
2023-03-12T12:51:50.641Z,18.40
2023-03-12T13:00:21.029Z,18.30
2023-03-12T13:02:49.228Z,18.40
2023-03-12T13:07:57.144Z,18.30
2023-03-12T13:13:17.929Z,18.30
2023-03-12T13:15:44.876Z,18.30
2023-03-12T13:31:27.956Z,18.30
2023-03-12T13:34:17.885Z,18.30
2023-03-12T13:47:36.984Z,18.60
2023-03-12T13:58:10.082Z,18.60
2023-03-12T14:03:40.484Z,18.70
2023-03-12T14:12:00.308Z,18.60
2023-03-12T14:15:00.740Z,18.60
2023-03-12T14:17:30.462Z,18.60
2023-03-12T14:19:59.413Z,18.60
2023-03-12T14:42:08.706Z,18.60
2023-03-12T14:44:38.126Z,18.60
2023-03-12T14:47:09.977Z,18.60
2023-03-12T14:52:27.473Z,18.50
2023-03-12T14:57:28.290Z,18.60
2023-03-12T14:59:59.967Z,18.60
2023-03-12T15:02:29.964Z,18.60
2023-03-12T15:04:59.980Z,18.60
2023-03-12T15:12:49.075Z,18.60
2023-03-12T15:23:37.521Z,18.50
2023-03-12T15:31:40.017Z,18.50
2023-03-12T15:34:07.029Z,18.50
2023-03-12T15:42:09.394Z,18.50
2023-03-12T15:44:48.352Z,18.60
2023-03-12T15:47:18.737Z,18.60
2023-03-12T15:50:28.181Z,18.60
2023-03-12T16:01:16.992Z,18.50
2023-03-12T16:14:18.085Z,18.60
2023-03-12T16:19:18.994Z,18.50
2023-03-12T16:24:17.358Z,18.50
2023-03-12T16:26:50.566Z,18.60
2023-03-12T16:29:18.372Z,18.50
2023-03-12T16:31:47.510Z,18.50
2023-03-12T16:39:18.928Z,18.50
2023-03-12T16:44:21.138Z,18.50
2023-03-12T16:46:47.940Z,18.50
2023-03-12T16:49:17.313Z,18.50
2023-03-12T16:54:15.702Z,18.50
2023-03-12T17:22:24.714Z,18.50
2023-03-12T17:24:51.305Z,18.50
2023-03-12T17:27:17.969Z,18.60
2023-03-12T17:29:44.591Z,18.60
2023-03-12T17:32:11.166Z,18.60
2023-03-12T17:34:37.951Z,18.60
2023-03-12T17:37:04.630Z,18.60
2023-03-12T17:39:31.240Z,18.60
2023-03-12T17:41:57.882Z,18.70
2023-03-12T17:44:25.507Z,18.70
2023-03-12T17:46:59.206Z,18.70
2023-03-12T17:49:27.185Z,18.70
2023-03-12T17:51:53.859Z,18.70
2023-03-12T17:54:21.938Z,18.70
2023-03-12T17:56:48.653Z,18.70
2023-03-12T17:59:15.217Z,18.70
2023-03-12T18:01:41.821Z,18.80
2023-03-12T18:04:08.356Z,18.80
2023-03-12T18:06:34.915Z,18.70
2023-03-12T18:09:01.507Z,18.80
2023-03-12T18:11:28.090Z,18.80
2023-03-12T18:13:54.656Z,18.70
2023-03-12T18:16:21.213Z,18.70
2023-03-12T18:18:47.856Z,18.70
2023-03-12T18:21:14.454Z,18.70
2023-03-12T18:23:43.622Z,18.70
2023-03-12T18:26:10.200Z,18.70
2023-03-12T18:28:36.804Z,18.70
2023-03-12T18:31:03.963Z,18.70
2023-03-12T18:33:36.163Z,18.70
2023-03-12T18:36:03.043Z,18.70
2023-03-12T18:38:31.935Z,18.70
2023-03-12T18:41:06.142Z,18.70
2023-03-12T18:43:33.501Z,18.70
2023-03-12T18:46:00.188Z,18.70
2023-03-12T18:48:27.117Z,18.70
2023-03-12T18:50:53.882Z,18.70
2023-03-12T18:53:20.595Z,18.70
2023-03-12T18:55:55.185Z,18.70
2023-03-12T18:58:22.570Z,18.70
2023-03-12T19:00:56.367Z,18.70
2023-03-12T19:03:23.919Z,18.70
2023-03-12T19:06:04.575Z,18.70
2023-03-12T19:08:31.314Z,18.70
2023-03-12T19:10:58.002Z,18.70
2023-03-12T19:13:24.693Z,18.70
2023-03-12T19:15:58.805Z,18.70
2023-03-12T19:18:25.400Z,18.70
2023-03-12T19:20:51.965Z,18.80
2023-03-12T19:23:18.555Z,18.80
2023-03-12T19:25:45.276Z,18.80
2023-03-12T19:28:11.966Z,18.80
2023-03-12T19:30:38.561Z,18.80
2023-03-12T19:33:05.375Z,18.80
2023-03-12T19:35:32.336Z,18.80
2023-03-12T19:37:59.519Z,18.80
2023-03-12T19:40:26.343Z,18.80
2023-03-12T19:42:52.901Z,18.90
2023-03-12T19:45:19.610Z,18.90
2023-03-12T19:47:46.146Z,18.80
2023-03-12T19:50:12.786Z,18.90
2023-03-12T19:52:39.379Z,18.90
2023-03-12T19:55:06.215Z,18.90
2023-03-12T19:57:34.619Z,18.90
2023-03-12T20:00:01.343Z,18.90
2023-03-12T20:02:27.979Z,18.90
2023-03-12T20:04:55.373Z,18.90
2023-03-12T20:07:22.005Z,19.00
2023-03-12T20:09:48.585Z,19.00
2023-03-12T20:12:15.252Z,19.00
2023-03-12T20:14:42.918Z,19.00
2023-03-12T20:17:09.881Z,19.00
2023-03-12T20:19:36.630Z,19.00
2023-03-12T20:22:03.282Z,19.00
2023-03-12T20:24:29.872Z,19.00
2023-03-12T20:26:56.875Z,19.00
2023-03-12T20:29:24.009Z,19.00
2023-03-12T20:31:50.966Z,19.10
2023-03-12T20:34:17.508Z,19.00
2023-03-12T20:36:44.072Z,19.00
2023-03-12T20:39:10.635Z,19.00
2023-03-12T20:41:37.285Z,19.00
2023-03-12T20:44:03.898Z,19.10
2023-03-12T20:46:30.470Z,19.00
2023-03-12T20:48:57.008Z,19.00
2023-03-12T20:51:24.742Z,19.10
2023-03-12T20:53:51.553Z,19.10
2023-03-12T20:56:18.105Z,19.10
2023-03-12T20:58:44.751Z,19.10
2023-03-12T21:01:11.340Z,19.10
2023-03-12T21:03:37.982Z,19.10
2023-03-12T21:06:04.860Z,19.10
2023-03-12T21:08:32.788Z,19.10
2023-03-12T21:10:59.408Z,19.10
2023-03-12T21:13:26.542Z,19.10
2023-03-12T21:15:53.130Z,19.10
2023-03-12T21:18:19.753Z,19.10
2023-03-12T21:20:46.755Z,19.10
2023-03-12T21:23:13.371Z,19.10
2023-03-12T21:25:41.597Z,19.10
2023-03-12T21:28:09.855Z,19.10
2023-03-12T21:30:36.785Z,19.10
2023-03-12T21:33:03.607Z,19.10
2023-03-12T21:35:30.329Z,19.10
2023-03-12T21:37:56.985Z,19.10
2023-03-12T21:40:23.897Z,19.10
2023-03-12T21:42:50.578Z,19.10
2023-03-12T21:45:17.275Z,19.00
2023-03-12T21:47:44.037Z,19.10
2023-03-12T21:50:11.457Z,19.00
2023-03-12T21:52:42.882Z,19.00
2023-03-12T21:55:10.052Z,19.00
2023-03-12T21:57:36.759Z,19.00
2023-03-12T22:00:04.321Z,19.00
2023-03-12T22:02:31.618Z,19.00
2023-03-12T22:05:00.988Z,19.00
2023-03-12T22:07:30.028Z,19.00
2023-03-12T22:09:56.893Z,19.00
2023-03-12T22:12:23.612Z,19.00
2023-03-12T22:14:50.271Z,19.00
2023-03-12T22:17:17.276Z,19.00
2023-03-12T22:19:44.190Z,19.00
2023-03-12T22:22:10.994Z,19.00
2023-03-12T22:24:37.618Z,19.00
2023-03-12T22:27:07.240Z,19.00
2023-03-12T22:29:34.747Z,18.90
2023-03-12T22:32:01.843Z,19.00
2023-03-12T22:34:29.543Z,18.90
2023-03-12T22:36:56.266Z,19.00
2023-03-12T22:39:22.876Z,18.90
2023-03-12T22:41:53.459Z,18.90
2023-03-12T22:44:20.145Z,18.90
2023-03-12T22:46:46.843Z,18.90
2023-03-12T22:49:14.963Z,18.90
2023-03-12T22:51:41.612Z,18.90
2023-03-12T22:54:08.219Z,18.90
2023-03-12T22:56:34.863Z,18.90
2023-03-12T22:59:01.544Z,18.90
2023-03-12T23:01:28.141Z,18.90
2023-03-12T23:03:54.742Z,18.90
2023-03-12T23:06:24.811Z,18.90
2023-03-12T23:08:52.276Z,18.90
2023-03-12T23:11:19.529Z,18.90
2023-03-12T23:13:48.119Z,18.90
2023-03-12T23:16:18.389Z,18.90
2023-03-12T23:18:45.625Z,18.90
2023-03-12T23:21:15.154Z,18.90
2023-03-12T23:23:44.769Z,18.90
2023-03-12T23:26:18.033Z,18.90
2023-03-12T23:28:47.167Z,18.90
2023-03-12T23:31:17.410Z,18.90
2023-03-12T23:33:44.666Z,18.90
2023-03-12T23:36:14.259Z,18.90
2023-03-12T23:38:41.269Z,18.90
2023-03-12T23:41:10.401Z,18.90
2023-03-12T23:43:36.965Z,18.90
2023-03-12T23:46:05.521Z,18.90
2023-03-12T23:48:33.233Z,18.90
2023-03-12T23:51:18.258Z,18.90
2023-03-12T23:53:48.075Z,18.90
2023-03-12T23:56:20.337Z,18.80
2023-03-12T23:58:47.491Z,18.90
